sensor_id;sensor_type;location;lat;lon;timestamp;temperature;humidity
13198;DHT22;6664;52.514;13.440;2022-07-31T00:00:33;16.80;89.80
13198;DHT22;6664;52.514;13.440;2022-07-31T00:03:05;16.80;90.00
13198;DHT22;6664;52.514;13.440;2022-07-31T00:05:32;16.80;90.00
13198;DHT22;6664;52.514;13.440;2022-07-31T00:08:07;16.80;90.20
13198;DHT22;6664;52.514;13.440;2022-07-31T00:10:34;16.80;90.30
13198;DHT22;6664;52.514;13.440;2022-07-31T00:13:01;16.70;90.30
13198;DHT22;6664;52.514;13.440;2022-07-31T00:15:28;16.70;90.70
13198;DHT22;6664;52.514;13.440;2022-07-31T00:17:55;16.70;90.90
13198;DHT22;6664;52.514;13.440;2022-07-31T00:20:23;16.60;91.00
13198;DHT22;6664;52.514;13.440;2022-07-31T00:22:50;16.70;91.20
13198;DHT22;6664;52.514;13.440;2022-07-31T00:25:20;16.60;91.30
13198;DHT22;6664;52.514;13.440;2022-07-31T00:27:47;16.60;91.70
13198;DHT22;6664;52.514;13.440;2022-07-31T00:30:14;16.60;91.80
13198;DHT22;6664;52.514;13.440;2022-07-31T00:32:43;16.50;92.00
13198;DHT22;6664;52.514;13.440;2022-07-31T00:35:11;16.50;92.70
13198;DHT22;6664;52.514;13.440;2022-07-31T00:37:40;16.50;92.80
13198;DHT22;6664;52.514;13.440;2022-07-31T00:40:13;16.50;93.00
13198;DHT22;6664;52.514;13.440;2022-07-31T00:42:41;16.50;93.60
13198;DHT22;6664;52.514;13.440;2022-07-31T00:45:10;16.40;93.90
13198;DHT22;6664;52.514;13.440;2022-07-31T00:47:39;16.40;94.00
13198;DHT22;6664;52.514;13.440;2022-07-31T00:50:06;16.40;94.40
13198;DHT22;6664;52.514;13.440;2022-07-31T00:52:35;16.30;94.70
13198;DHT22;6664;52.514;13.440;2022-07-31T00:55:02;16.30;95.20
13198;DHT22;6664;52.514;13.440;2022-07-31T00:57:29;16.30;95.80
13198;DHT22;6664;52.514;13.440;2022-07-31T00:59:56;16.30;96.00
13198;DHT22;6664;52.514;13.440;2022-07-31T01:02:23;16.30;96.50
13198;DHT22;6664;52.514;13.440;2022-07-31T01:04:50;16.20;97.00
13198;DHT22;6664;52.514;13.440;2022-07-31T01:07:17;16.30;97.40
13198;DHT22;6664;52.514;13.440;2022-07-31T01:09:47;16.20;97.80
13198;DHT22;6664;52.514;13.440;2022-07-31T01:12:44;16.20;98.30
13198;DHT22;6664;52.514;13.440;2022-07-31T01:15:20;16.20;98.80
13198;DHT22;6664;52.514;13.440;2022-07-31T01:17:51;16.20;99.70
13198;DHT22;6664;52.514;13.440;2022-07-31T01:20:18;16.20;99.90
13198;DHT22;6664;52.514;13.440;2022-07-31T01:31:41;16.10;99.90
13198;DHT22;6664;52.514;13.440;2022-07-31T01:34:18;16.10;99.90
13198;DHT22;6664;52.514;13.440;2022-07-31T01:37:12;16.10;99.90
13198;DHT22;6664;52.514;13.440;2022-07-31T01:39:44;16.10;99.90
13198;DHT22;6664;52.514;13.440;2022-07-31T01:42:15;16.10;99.90
13198;DHT22;6664;52.514;13.440;2022-07-31T01:44:52;16.10;99.90
13198;DHT22;6664;52.514;13.440;2022-07-31T01:47:21;16.10;99.90
13198;DHT22;6664;52.514;13.440;2022-07-31T01:49:50;16.10;99.90
13198;DHT22;6664;52.514;13.440;2022-07-31T01:52:23;16.00;99.90
13198;DHT22;6664;52.514;13.440;2022-07-31T01:54:52;16.00;99.90
13198;DHT22;6664;52.514;13.440;2022-07-31T01:57:21;16.00;99.90
13198;DHT22;6664;52.514;13.440;2022-07-31T01:59:51;16.00;99.90
13198;DHT22;6664;52.514;13.440;2022-07-31T02:02:23;15.90;99.90
13198;DHT22;6664;52.514;13.440;2022-07-31T02:04:51;15.90;99.90
13198;DHT22;6664;52.514;13.440;2022-07-31T02:07:19;15.90;99.90
13198;DHT22;6664;52.514;13.440;2022-07-31T02:09:48;15.90;99.90
13198;DHT22;6664;52.514;13.440;2022-07-31T02:12:24;15.90;99.90
13198;DHT22;6664;52.514;13.440;2022-07-31T02:15:05;15.90;99.90
13198;DHT22;6664;52.514;13.440;2022-07-31T02:17:35;15.90;99.90
13198;DHT22;6664;52.514;13.440;2022-07-31T02:20:07;15.90;99.90
13198;DHT22;6664;52.514;13.440;2022-07-31T02:22:35;15.90;99.90
13198;DHT22;6664;52.514;13.440;2022-07-31T02:25:03;15.80;99.90
13198;DHT22;6664;52.514;13.440;2022-07-31T02:27:32;15.80;99.90
13198;DHT22;6664;52.514;13.440;2022-07-31T02:30:19;15.80;99.90
13198;DHT22;6664;52.514;13.440;2022-07-31T02:32:47;15.80;99.90
13198;DHT22;6664;52.514;13.440;2022-07-31T02:35:15;15.70;99.90
13198;DHT22;6664;52.514;13.440;2022-07-31T02:37:43;15.70;99.90
13198;DHT22;6664;52.514;13.440;2022-07-31T02:40:12;15.70;99.90
13198;DHT22;6664;52.514;13.440;2022-07-31T02:42:40;15.70;99.90
13198;DHT22;6664;52.514;13.440;2022-07-31T02:45:10;15.70;99.90
13198;DHT22;6664;52.514;13.440;2022-07-31T02:47:38;15.70;99.90
13198;DHT22;6664;52.514;13.440;2022-07-31T02:50:07;15.60;99.90
13198;DHT22;6664;52.514;13.440;2022-07-31T02:52:34;15.60;99.90
13198;DHT22;6664;52.514;13.440;2022-07-31T02:55:02;15.60;99.90
13198;DHT22;6664;52.514;13.440;2022-07-31T02:57:29;15.60;99.90
13198;DHT22;6664;52.514;13.440;2022-07-31T02:59:56;15.60;99.90
13198;DHT22;6664;52.514;13.440;2022-07-31T03:02:23;15.60;99.90
13198;DHT22;6664;52.514;13.440;2022-07-31T03:05:02;15.60;99.90
13198;DHT22;6664;52.514;13.440;2022-07-31T03:07:29;15.60;99.90
13198;DHT22;6664;52.514;13.440;2022-07-31T03:09:59;15.50;99.90
13198;DHT22;6664;52.514;13.440;2022-07-31T03:12:26;15.50;99.90
13198;DHT22;6664;52.514;13.440;2022-07-31T03:14:59;15.50;99.90
13198;DHT22;6664;52.514;13.440;2022-07-31T03:17:29;15.50;99.90
13198;DHT22;6664;52.514;13.440;2022-07-31T03:20:07;15.40;99.90
13198;DHT22;6664;52.514;13.440;2022-07-31T03:22:34;15.40;99.90
13198;DHT22;6664;52.514;13.440;2022-07-31T03:25:03;15.40;99.90
13198;DHT22;6664;52.514;13.440;2022-07-31T03:27:30;15.40;99.90
13198;DHT22;6664;52.514;13.440;2022-07-31T03:29:57;15.40;99.90
13198;DHT22;6664;52.514;13.440;2022-07-31T03:32:24;15.50;99.90
13198;DHT22;6664;52.514;13.440;2022-07-31T03:34:50;15.40;99.90
13198;DHT22;6664;52.514;13.440;2022-07-31T03:37:17;15.40;99.90
13198;DHT22;6664;52.514;13.440;2022-07-31T03:39:44;15.40;99.90
13198;DHT22;6664;52.514;13.440;2022-07-31T03:42:12;15.40;99.90
13198;DHT22;6664;52.514;13.440;2022-07-31T03:44:44;15.40;99.90
13198;DHT22;6664;52.514;13.440;2022-07-31T03:47:12;15.40;99.90
13198;DHT22;6664;52.514;13.440;2022-07-31T03:49:42;15.40;99.90
13198;DHT22;6664;52.514;13.440;2022-07-31T03:52:09;15.50;99.90
13198;DHT22;6664;52.514;13.440;2022-07-31T03:54:39;15.50;99.90
13198;DHT22;6664;52.514;13.440;2022-07-31T03:57:07;15.50;99.90
13198;DHT22;6664;52.514;13.440;2022-07-31T03:59:34;15.60;99.90
13198;DHT22;6664;52.514;13.440;2022-07-31T04:02:06;15.60;99.90
13198;DHT22;6664;52.514;13.440;2022-07-31T04:04:36;15.60;99.90
13198;DHT22;6664;52.514;13.440;2022-07-31T04:07:06;15.70;99.90
13198;DHT22;6664;52.514;13.440;2022-07-31T04:09:33;15.70;99.90
13198;DHT22;6664;52.514;13.440;2022-07-31T04:12:02;15.70;99.90
13198;DHT22;6664;52.514;13.440;2022-07-31T04:14:29;15.80;99.90
13198;DHT22;6664;52.514;13.440;2022-07-31T04:16:56;15.90;99.90
13198;DHT22;6664;52.514;13.440;2022-07-31T04:19:23;15.90;99.90
13198;DHT22;6664;52.514;13.440;2022-07-31T04:21:52;16.00;99.90
13198;DHT22;6664;52.514;13.440;2022-07-31T04:24:19;16.00;99.90
13198;DHT22;6664;52.514;13.440;2022-07-31T04:26:48;16.00;99.90
13198;DHT22;6664;52.514;13.440;2022-07-31T04:29:15;16.00;99.90
13198;DHT22;6664;52.514;13.440;2022-07-31T04:31:42;16.10;99.90
13198;DHT22;6664;52.514;13.440;2022-07-31T04:34:09;16.10;99.90
13198;DHT22;6664;52.514;13.440;2022-07-31T04:36:36;16.10;99.90
13198;DHT22;6664;52.514;13.440;2022-07-31T04:39:05;16.20;99.90
13198;DHT22;6664;52.514;13.440;2022-07-31T04:41:32;16.20;99.90
13198;DHT22;6664;52.514;13.440;2022-07-31T04:43:59;16.30;99.90
13198;DHT22;6664;52.514;13.440;2022-07-31T04:46:26;16.30;99.90
13198;DHT22;6664;52.514;13.440;2022-07-31T04:48:53;16.40;99.90
13198;DHT22;6664;52.514;13.440;2022-07-31T04:51:22;16.40;99.90
13198;DHT22;6664;52.514;13.440;2022-07-31T04:53:49;16.40;99.90
13198;DHT22;6664;52.514;13.440;2022-07-31T04:56:18;16.50;99.90
13198;DHT22;6664;52.514;13.440;2022-07-31T04:59:07;16.60;99.90
13198;DHT22;6664;52.514;13.440;2022-07-31T05:01:34;16.60;99.90
13198;DHT22;6664;52.514;13.440;2022-07-31T05:04:01;16.70;99.90
13198;DHT22;6664;52.514;13.440;2022-07-31T05:06:36;16.70;99.90
13198;DHT22;6664;52.514;13.440;2022-07-31T05:09:07;16.70;99.90
13198;DHT22;6664;52.514;13.440;2022-07-31T05:11:44;16.80;99.90
13198;DHT22;6664;52.514;13.440;2022-07-31T05:14:15;16.80;99.90
13198;DHT22;6664;52.514;13.440;2022-07-31T05:16:43;16.90;99.60
13198;DHT22;6664;52.514;13.440;2022-07-31T05:19:11;16.90;98.70
13198;DHT22;6664;52.514;13.440;2022-07-31T05:21:41;17.00;97.80
13198;DHT22;6664;52.514;13.440;2022-07-31T05:24:19;17.00;96.80
13198;DHT22;6664;52.514;13.440;2022-07-31T05:27:03;17.10;96.10
13198;DHT22;6664;52.514;13.440;2022-07-31T05:29:31;17.10;94.50
13198;DHT22;6664;52.514;13.440;2022-07-31T05:31:58;17.20;93.60
13198;DHT22;6664;52.514;13.440;2022-07-31T05:34:37;17.30;93.80
13198;DHT22;6664;52.514;13.440;2022-07-31T05:37:06;17.30;93.30
13198;DHT22;6664;52.514;13.440;2022-07-31T05:39:35;17.40;93.00
13198;DHT22;6664;52.514;13.440;2022-07-31T05:42:04;17.40;92.80
13198;DHT22;6664;52.514;13.440;2022-07-31T05:44:34;17.50;92.60
13198;DHT22;6664;52.514;13.440;2022-07-31T05:47:01;17.60;92.70
13198;DHT22;6664;52.514;13.440;2022-07-31T05:49:28;17.60;92.20
13198;DHT22;6664;52.514;13.440;2022-07-31T05:52:00;17.70;92.20
13198;DHT22;6664;52.514;13.440;2022-07-31T05:54:28;17.70;92.20
13198;DHT22;6664;52.514;13.440;2022-07-31T05:56:57;17.80;92.10
13198;DHT22;6664;52.514;13.440;2022-07-31T05:59:24;17.90;91.60
13198;DHT22;6664;52.514;13.440;2022-07-31T06:01:51;17.90;91.30
13198;DHT22;6664;52.514;13.440;2022-07-31T06:04:18;18.00;91.40
13198;DHT22;6664;52.514;13.440;2022-07-31T06:06:50;18.10;91.40
13198;DHT22;6664;52.514;13.440;2022-07-31T06:09:17;18.30;91.00
13198;DHT22;6664;52.514;13.440;2022-07-31T06:11:43;18.30;91.00
13198;DHT22;6664;52.514;13.440;2022-07-31T06:14:13;18.40;91.00
13198;DHT22;6664;52.514;13.440;2022-07-31T06:16:42;18.50;91.00
13198;DHT22;6664;52.514;13.440;2022-07-31T06:19:09;18.60;90.90
13198;DHT22;6664;52.514;13.440;2022-07-31T06:21:38;18.60;90.60
13198;DHT22;6664;52.514;13.440;2022-07-31T06:24:07;18.70;90.20
13198;DHT22;6664;52.514;13.440;2022-07-31T06:26:34;18.70;90.00
13198;DHT22;6664;52.514;13.440;2022-07-31T06:29:07;18.90;89.60
13198;DHT22;6664;52.514;13.440;2022-07-31T06:31:36;18.90;89.60
13198;DHT22;6664;52.514;13.440;2022-07-31T06:34:03;18.90;89.60
13198;DHT22;6664;52.514;13.440;2022-07-31T06:36:30;18.90;88.70
13198;DHT22;6664;52.514;13.440;2022-07-31T06:38:57;19.00;88.50
13198;DHT22;6664;52.514;13.440;2022-07-31T06:41:26;19.00;88.30
13198;DHT22;6664;52.514;13.440;2022-07-31T06:44:16;19.10;87.40
13198;DHT22;6664;52.514;13.440;2022-07-31T06:46:46;19.10;86.70
13198;DHT22;6664;52.514;13.440;2022-07-31T06:49:17;19.10;86.30
13198;DHT22;6664;52.514;13.440;2022-07-31T06:51:44;19.10;86.40
13198;DHT22;6664;52.514;13.440;2022-07-31T06:54:13;19.20;86.40
13198;DHT22;6664;52.514;13.440;2022-07-31T06:56:40;19.20;85.90
13198;DHT22;6664;52.514;13.440;2022-07-31T06:59:07;19.30;85.20
13198;DHT22;6664;52.514;13.440;2022-07-31T07:01:36;19.30;85.60
13198;DHT22;6664;52.514;13.440;2022-07-31T07:04:04;19.40;85.80
13198;DHT22;6664;52.514;13.440;2022-07-31T07:06:31;19.50;84.60
13198;DHT22;6664;52.514;13.440;2022-07-31T07:08:59;19.50;84.10
13198;DHT22;6664;52.514;13.440;2022-07-31T07:11:29;19.50;83.80
13198;DHT22;6664;52.514;13.440;2022-07-31T07:13:56;19.50;83.80
13198;DHT22;6664;52.514;13.440;2022-07-31T07:16:23;19.60;83.20
13198;DHT22;6664;52.514;13.440;2022-07-31T07:18:49;19.70;81.80
13198;DHT22;6664;52.514;13.440;2022-07-31T07:21:17;19.80;80.70
13198;DHT22;6664;52.514;13.440;2022-07-31T07:23:44;19.80;80.40
13198;DHT22;6664;52.514;13.440;2022-07-31T07:26:10;19.90;80.30
13198;DHT22;6664;52.514;13.440;2022-07-31T07:28:37;20.00;77.60
13198;DHT22;6664;52.514;13.440;2022-07-31T07:31:05;20.10;76.90
13198;DHT22;6664;52.514;13.440;2022-07-31T07:33:36;20.10;75.00
13198;DHT22;6664;52.514;13.440;2022-07-31T07:36:05;20.20;73.00
13198;DHT22;6664;52.514;13.440;2022-07-31T07:38:32;20.20;71.80
13198;DHT22;6664;52.514;13.440;2022-07-31T07:41:01;20.20;71.60
13198;DHT22;6664;52.514;13.440;2022-07-31T07:43:30;20.30;70.00
13198;DHT22;6664;52.514;13.440;2022-07-31T07:45:57;20.40;69.10
13198;DHT22;6664;52.514;13.440;2022-07-31T07:48:24;20.40;68.30
13198;DHT22;6664;52.514;13.440;2022-07-31T07:50:55;20.50;68.00
13198;DHT22;6664;52.514;13.440;2022-07-31T07:53:22;20.60;67.30
13198;DHT22;6664;52.514;13.440;2022-07-31T07:55:53;20.70;66.70
13198;DHT22;6664;52.514;13.440;2022-07-31T07:58:20;20.70;66.70
13198;DHT22;6664;52.514;13.440;2022-07-31T08:00:48;20.80;66.60
13198;DHT22;6664;52.514;13.440;2022-07-31T08:03:14;20.80;66.80
13198;DHT22;6664;52.514;13.440;2022-07-31T08:06:02;20.90;65.80
13198;DHT22;6664;52.514;13.440;2022-07-31T08:08:29;20.90;65.50
13198;DHT22;6664;52.514;13.440;2022-07-31T08:10:58;21.00;64.70
13198;DHT22;6664;52.514;13.440;2022-07-31T08:13:26;21.00;65.00
13198;DHT22;6664;52.514;13.440;2022-07-31T08:15:53;21.10;64.60
13198;DHT22;6664;52.514;13.440;2022-07-31T08:18:22;21.10;64.10
13198;DHT22;6664;52.514;13.440;2022-07-31T08:20:54;21.10;64.20
13198;DHT22;6664;52.514;13.440;2022-07-31T08:23:23;21.20;64.30
13198;DHT22;6664;52.514;13.440;2022-07-31T08:25:50;21.20;63.90
13198;DHT22;6664;52.514;13.440;2022-07-31T08:28:17;21.30;63.40
13198;DHT22;6664;52.514;13.440;2022-07-31T08:30:49;21.30;63.30
13198;DHT22;6664;52.514;13.440;2022-07-31T08:33:16;21.40;62.80
13198;DHT22;6664;52.514;13.440;2022-07-31T08:35:43;21.50;62.40
13198;DHT22;6664;52.514;13.440;2022-07-31T08:38:17;21.60;62.30
13198;DHT22;6664;52.514;13.440;2022-07-31T08:40:45;21.50;62.80
13198;DHT22;6664;52.514;13.440;2022-07-31T08:43:12;21.70;62.80
13198;DHT22;6664;52.514;13.440;2022-07-31T08:45:59;21.70;62.30
13198;DHT22;6664;52.514;13.440;2022-07-31T08:48:31;21.80;62.60
13198;DHT22;6664;52.514;13.440;2022-07-31T08:51:01;21.80;62.40
13198;DHT22;6664;52.514;13.440;2022-07-31T08:53:30;21.90;62.40
13198;DHT22;6664;52.514;13.440;2022-07-31T08:55:59;21.90;62.00
13198;DHT22;6664;52.514;13.440;2022-07-31T08:58:28;21.90;61.10
13198;DHT22;6664;52.514;13.440;2022-07-31T09:00:58;21.90;59.80
13198;DHT22;6664;52.514;13.440;2022-07-31T09:03:25;22.00;59.80
13198;DHT22;6664;52.514;13.440;2022-07-31T09:05:52;22.10;59.80
13198;DHT22;6664;52.514;13.440;2022-07-31T09:08:21;22.10;59.40
13198;DHT22;6664;52.514;13.440;2022-07-31T09:13:33;22.10;59.80
13198;DHT22;6664;52.514;13.440;2022-07-31T09:16:04;22.20;59.70
13198;DHT22;6664;52.514;13.440;2022-07-31T09:18:31;22.30;58.40
13198;DHT22;6664;52.514;13.440;2022-07-31T09:21:07;22.40;58.00
13198;DHT22;6664;52.514;13.440;2022-07-31T09:23:44;22.50;57.60
13198;DHT22;6664;52.514;13.440;2022-07-31T09:26:14;22.60;57.70
13198;DHT22;6664;52.514;13.440;2022-07-31T09:28:47;22.70;56.50
13198;DHT22;6664;52.514;13.440;2022-07-31T09:31:21;22.80;56.30
13198;DHT22;6664;52.514;13.440;2022-07-31T09:33:48;22.80;55.90
13198;DHT22;6664;52.514;13.440;2022-07-31T09:36:21;22.80;55.70
13198;DHT22;6664;52.514;13.440;2022-07-31T09:38:52;23.00;53.30
13198;DHT22;6664;52.514;13.440;2022-07-31T09:41:20;23.00;54.40
13198;DHT22;6664;52.514;13.440;2022-07-31T09:44:08;23.00;54.80
13198;DHT22;6664;52.514;13.440;2022-07-31T09:46:45;23.10;54.70
13198;DHT22;6664;52.514;13.440;2022-07-31T09:49:12;23.20;53.50
13198;DHT22;6664;52.514;13.440;2022-07-31T09:51:44;23.30;53.10
13198;DHT22;6664;52.514;13.440;2022-07-31T09:54:25;23.30;52.90
13198;DHT22;6664;52.514;13.440;2022-07-31T09:56:53;23.40;52.60
13198;DHT22;6664;52.514;13.440;2022-07-31T09:59:22;23.50;52.10
13198;DHT22;6664;52.514;13.440;2022-07-31T10:01:52;23.50;52.20
13198;DHT22;6664;52.514;13.440;2022-07-31T10:04:23;23.60;52.30
13198;DHT22;6664;52.514;13.440;2022-07-31T10:06:53;23.70;51.60
13198;DHT22;6664;52.514;13.440;2022-07-31T10:09:24;23.70;51.70
13198;DHT22;6664;52.514;13.440;2022-07-31T10:11:52;23.90;52.10
13198;DHT22;6664;52.514;13.440;2022-07-31T10:14:26;24.00;51.80
13198;DHT22;6664;52.514;13.440;2022-07-31T10:16:55;24.10;51.10
13198;DHT22;6664;52.514;13.440;2022-07-31T10:19:26;24.20;51.50
13198;DHT22;6664;52.514;13.440;2022-07-31T10:21:59;24.50;51.10
13198;DHT22;6664;52.514;13.440;2022-07-31T10:24:32;24.50;49.60
13198;DHT22;6664;52.514;13.440;2022-07-31T10:27:01;24.50;49.00
13198;DHT22;6664;52.514;13.440;2022-07-31T10:29:36;24.60;48.90
13198;DHT22;6664;52.514;13.440;2022-07-31T10:32:07;24.70;49.00
13198;DHT22;6664;52.514;13.440;2022-07-31T10:34:34;24.80;48.50
13198;DHT22;6664;52.514;13.440;2022-07-31T10:37:15;24.80;48.30
13198;DHT22;6664;52.514;13.440;2022-07-31T10:45:29;25.20;46.40
13198;DHT22;6664;52.514;13.440;2022-07-31T10:48:00;25.30;46.10
13198;DHT22;6664;52.514;13.440;2022-07-31T10:50:29;25.30;46.20
13198;DHT22;6664;52.514;13.440;2022-07-31T10:53:11;25.30;46.10
13198;DHT22;6664;52.514;13.440;2022-07-31T10:55:38;25.30;45.30
13198;DHT22;6664;52.514;13.440;2022-07-31T10:58:14;25.40;44.50
13198;DHT22;6664;52.514;13.440;2022-07-31T11:00:42;25.50;44.60
13198;DHT22;6664;52.514;13.440;2022-07-31T11:03:20;25.70;44.30
13198;DHT22;6664;52.514;13.440;2022-07-31T11:05:57;25.80;43.30
13198;DHT22;6664;52.514;13.440;2022-07-31T11:08:43;25.80;43.40
13198;DHT22;6664;52.514;13.440;2022-07-31T11:11:11;26.00;43.10
13198;DHT22;6664;52.514;13.440;2022-07-31T11:13:49;26.20;42.20
13198;DHT22;6664;52.514;13.440;2022-07-31T11:16:18;26.20;42.00
13198;DHT22;6664;52.514;13.440;2022-07-31T11:19:00;26.40;41.20
13198;DHT22;6664;52.514;13.440;2022-07-31T11:21:36;26.80;41.40
13198;DHT22;6664;52.514;13.440;2022-07-31T11:24:19;27.30;39.90
13198;DHT22;6664;52.514;13.440;2022-07-31T11:26:53;27.40;38.60
13198;DHT22;6664;52.514;13.440;2022-07-31T11:29:27;27.30;39.00
13198;DHT22;6664;52.514;13.440;2022-07-31T11:32:14;27.50;37.70
13198;DHT22;6664;52.514;13.440;2022-07-31T11:34:48;27.70;37.20
13198;DHT22;6664;52.514;13.440;2022-07-31T11:40:24;27.60;35.80
13198;DHT22;6664;52.514;13.440;2022-07-31T11:42:53;28.00;36.50
13198;DHT22;6664;52.514;13.440;2022-07-31T11:45:51;28.20;34.50
13198;DHT22;6664;52.514;13.440;2022-07-31T11:48:21;28.80;34.20
13198;DHT22;6664;52.514;13.440;2022-07-31T11:50:56;28.60;33.30
13198;DHT22;6664;52.514;13.440;2022-07-31T11:53:26;28.60;33.40
13198;DHT22;6664;52.514;13.440;2022-07-31T11:55:57;28.40;34.00
13198;DHT22;6664;52.514;13.440;2022-07-31T11:58:28;28.40;34.50
13198;DHT22;6664;52.514;13.440;2022-07-31T12:01:00;28.50;34.30
13198;DHT22;6664;52.514;13.440;2022-07-31T12:03:29;28.40;34.20
13198;DHT22;6664;52.514;13.440;2022-07-31T12:05:57;28.40;35.00
13198;DHT22;6664;52.514;13.440;2022-07-31T12:08:25;28.60;34.00
13198;DHT22;6664;52.514;13.440;2022-07-31T12:10:53;28.50;33.60
13198;DHT22;6664;52.514;13.440;2022-07-31T12:13:21;29.00;33.20
13198;DHT22;6664;52.514;13.440;2022-07-31T12:16:08;28.70;32.80
13198;DHT22;6664;52.514;13.440;2022-07-31T12:18:54;28.80;32.00
13198;DHT22;6664;52.514;13.440;2022-07-31T12:21:34;28.60;31.60
13198;DHT22;6664;52.514;13.440;2022-07-31T12:24:09;28.90;31.10
13198;DHT22;6664;52.514;13.440;2022-07-31T12:26:42;28.70;32.20
13198;DHT22;6664;52.514;13.440;2022-07-31T12:29:14;28.50;31.50
13198;DHT22;6664;52.514;13.440;2022-07-31T12:34:40;27.90;33.50
13198;DHT22;6664;52.514;13.440;2022-07-31T12:37:09;27.70;34.30
13198;DHT22;6664;52.514;13.440;2022-07-31T12:42:32;27.60;35.40
13198;DHT22;6664;52.514;13.440;2022-07-31T12:45:10;27.70;35.60
13198;DHT22;6664;52.514;13.440;2022-07-31T12:47:52;27.90;34.60
13198;DHT22;6664;52.514;13.440;2022-07-31T12:50:20;28.20;34.20
13198;DHT22;6664;52.514;13.440;2022-07-31T12:52:47;28.70;33.20
13198;DHT22;6664;52.514;13.440;2022-07-31T12:55:14;30.60;30.70
13198;DHT22;6664;52.514;13.440;2022-07-31T12:57:44;34.50;25.60
13198;DHT22;6664;52.514;13.440;2022-07-31T13:00:21;33.70;23.90
13198;DHT22;6664;52.514;13.440;2022-07-31T13:02:53;32.00;25.20
13198;DHT22;6664;52.514;13.440;2022-07-31T13:05:21;31.00;27.80
13198;DHT22;6664;52.514;13.440;2022-07-31T13:07:48;30.90;28.50
13198;DHT22;6664;52.514;13.440;2022-07-31T13:10:16;33.80;25.60
13198;DHT22;6664;52.514;13.440;2022-07-31T13:12:50;37.00;22.40
13198;DHT22;6664;52.514;13.440;2022-07-31T13:15:18;45.10;12.40
13198;DHT22;6664;52.514;13.440;2022-07-31T13:17:49;48.40;7.00
13198;DHT22;6664;52.514;13.440;2022-07-31T13:20:17;52.80;1.40
13198;DHT22;6664;52.514;13.440;2022-07-31T13:22:46;52.80;1.00
13198;DHT22;6664;52.514;13.440;2022-07-31T13:25:13;53.70;1.00
13198;DHT22;6664;52.514;13.440;2022-07-31T13:27:40;55.40;1.00
13198;DHT22;6664;52.514;13.440;2022-07-31T13:30:08;57.50;1.00
13198;DHT22;6664;52.514;13.440;2022-07-31T13:32:36;58.50;1.00
13198;DHT22;6664;52.514;13.440;2022-07-31T13:35:04;54.50;1.00
13198;DHT22;6664;52.514;13.440;2022-07-31T13:37:52;54.20;1.00
13198;DHT22;6664;52.514;13.440;2022-07-31T13:40:22;55.90;1.00
13198;DHT22;6664;52.514;13.440;2022-07-31T13:43:07;56.90;1.00
13198;DHT22;6664;52.514;13.440;2022-07-31T13:45:36;56.10;1.00
13198;DHT22;6664;52.514;13.440;2022-07-31T13:48:06;54.90;1.00
13198;DHT22;6664;52.514;13.440;2022-07-31T13:50:37;50.40;1.00
13198;DHT22;6664;52.514;13.440;2022-07-31T13:53:05;46.10;1.00
13198;DHT22;6664;52.514;13.440;2022-07-31T13:55:32;46.80;1.00
13198;DHT22;6664;52.514;13.440;2022-07-31T13:57:59;48.20;1.00
13198;DHT22;6664;52.514;13.440;2022-07-31T14:00:28;49.00;1.00
13198;DHT22;6664;52.514;13.440;2022-07-31T14:02:56;52.60;1.00
13198;DHT22;6664;52.514;13.440;2022-07-31T14:05:26;51.10;1.00
13198;DHT22;6664;52.514;13.440;2022-07-31T14:07:54;52.70;1.00
13198;DHT22;6664;52.514;13.440;2022-07-31T14:10:22;52.70;1.00
13198;DHT22;6664;52.514;13.440;2022-07-31T14:12:49;53.00;1.00
13198;DHT22;6664;52.514;13.440;2022-07-31T14:15:18;54.00;1.00
13198;DHT22;6664;52.514;13.440;2022-07-31T14:17:45;53.50;1.00
13198;DHT22;6664;52.514;13.440;2022-07-31T14:20:14;53.10;1.00
13198;DHT22;6664;52.514;13.440;2022-07-31T14:22:44;54.60;1.00
13198;DHT22;6664;52.514;13.440;2022-07-31T14:25:11;53.10;1.00
13198;DHT22;6664;52.514;13.440;2022-07-31T14:27:42;53.40;1.00
13198;DHT22;6664;52.514;13.440;2022-07-31T14:30:14;54.10;1.00
13198;DHT22;6664;52.514;13.440;2022-07-31T14:32:46;53.60;1.00
13198;DHT22;6664;52.514;13.440;2022-07-31T14:35:13;53.00;1.00
13198;DHT22;6664;52.514;13.440;2022-07-31T14:37:42;49.10;1.00
13198;DHT22;6664;52.514;13.440;2022-07-31T14:40:10;48.90;1.00
13198;DHT22;6664;52.514;13.440;2022-07-31T14:42:37;45.50;1.00
13198;DHT22;6664;52.514;13.440;2022-07-31T14:45:05;41.10;1.60
13198;DHT22;6664;52.514;13.440;2022-07-31T14:47:33;41.90;3.20
13198;DHT22;6664;52.514;13.440;2022-07-31T14:50:01;40.30;3.50
13198;DHT22;6664;52.514;13.440;2022-07-31T14:52:35;38.80;5.70
13198;DHT22;6664;52.514;13.440;2022-07-31T14:55:02;38.10;6.40
13198;DHT22;6664;52.514;13.440;2022-07-31T14:57:32;36.90;7.70
13198;DHT22;6664;52.514;13.440;2022-07-31T14:59:58;35.30;10.40
13198;DHT22;6664;52.514;13.440;2022-07-31T15:02:26;34.90;11.80
13198;DHT22;6664;52.514;13.440;2022-07-31T15:04:54;38.80;8.20
13198;DHT22;6664;52.514;13.440;2022-07-31T15:07:44;38.20;7.30
13198;DHT22;6664;52.514;13.440;2022-07-31T15:10:13;37.50;7.80
13198;DHT22;6664;52.514;13.440;2022-07-31T15:12:40;36.20;9.20
13198;DHT22;6664;52.514;13.440;2022-07-31T15:15:09;35.30;10.60
13198;DHT22;6664;52.514;13.440;2022-07-31T15:17:36;34.30;11.80
13198;DHT22;6664;52.514;13.440;2022-07-31T15:20:04;34.40;12.60
13198;DHT22;6664;52.514;13.440;2022-07-31T15:22:31;35.90;10.50
13198;DHT22;6664;52.514;13.440;2022-07-31T15:24:58;35.30;10.90
13198;DHT22;6664;52.514;13.440;2022-07-31T15:27:25;34.10;12.70
13198;DHT22;6664;52.514;13.440;2022-07-31T15:29:52;33.90;12.80
13198;DHT22;6664;52.514;13.440;2022-07-31T15:32:37;33.40;13.70
13198;DHT22;6664;52.514;13.440;2022-07-31T15:35:07;33.30;13.70
13198;DHT22;6664;52.514;13.440;2022-07-31T15:37:40;32.80;14.50
13198;DHT22;6664;52.514;13.440;2022-07-31T15:40:12;32.50;15.20
13198;DHT22;6664;52.514;13.440;2022-07-31T15:42:43;31.20;16.40
13198;DHT22;6664;52.514;13.440;2022-07-31T15:45:17;30.90;17.20
13198;DHT22;6664;52.514;13.440;2022-07-31T15:47:45;30.70;17.60
13198;DHT22;6664;52.514;13.440;2022-07-31T15:50:16;30.50;17.80
13198;DHT22;6664;52.514;13.440;2022-07-31T15:52:47;30.60;18.20
13198;DHT22;6664;52.514;13.440;2022-07-31T15:55:15;30.80;18.30
13198;DHT22;6664;52.514;13.440;2022-07-31T15:57:43;30.80;18.00
13198;DHT22;6664;52.514;13.440;2022-07-31T16:00:12;30.50;18.80
13198;DHT22;6664;52.514;13.440;2022-07-31T16:02:41;30.00;18.50
13198;DHT22;6664;52.514;13.440;2022-07-31T16:05:09;29.70;18.80
13198;DHT22;6664;52.514;13.440;2022-07-31T16:07:47;29.70;19.40
13198;DHT22;6664;52.514;13.440;2022-07-31T16:10:36;29.40;19.80
13198;DHT22;6664;52.514;13.440;2022-07-31T16:13:04;29.40;20.10
13198;DHT22;6664;52.514;13.440;2022-07-31T16:15:32;29.40;20.20
13198;DHT22;6664;52.514;13.440;2022-07-31T16:18:00;29.40;20.50